Terminal Aerodrome Forecast
Issued by NWS

Home | Current Version | Previous Version | Text Only | Print | Product List | Glossary On
Versions: 1 2 3 4 5 6 7 8 9 10 11 12 13 14 15 16 17 18 19
000
FTUS43 KJKL 252320
TAFSME
TAF
KSME 252320Z 2600/2624 24009KT P6SM SCT050 BKN080
     FM260130 VRB20G40KT 1SM +TSRA BKN015CB OVC030
     FM260300 28006KT 6SM -SHRA SCT025 BKN035
     FM260700 33008KT 6SM -SHRA OVC005
     FM261500 01008KT P6SM SCT008 OVC018
     FM262100 02006KT P6SM SCT025 BKN035=

USA.gov is the U.S. government's official web portal to all federal, state and local government web resources and services.